createdAt,value
2019-05-13T00:02:06.776Z,10.79
2019-05-13T00:04:39.359Z,10.42
2019-05-13T00:07:13.418Z,10.12
2019-05-13T00:09:45.937Z,9.87
2019-05-13T00:12:18.613Z,9.62
2019-05-13T00:14:50.822Z,11.26
2019-05-13T00:17:23.780Z,14.27
2019-05-13T00:19:57.886Z,13.62
2019-05-13T00:22:30.564Z,12.51
2019-05-13T00:25:04.066Z,11.74
2019-05-13T00:27:36.887Z,11.23
2019-05-13T00:30:09.917Z,10.86
2019-05-13T00:32:44.605Z,10.52
2019-05-13T00:35:16.815Z,10.25
2019-05-13T00:37:49.498Z,9.98
2019-05-13T00:40:24.040Z,9.89
2019-05-13T00:42:56.073Z,12.65
2019-05-13T00:45:28.774Z,13.38
2019-05-13T00:48:01.454Z,12.37
2019-05-13T00:50:34.120Z,11.63
2019-05-13T00:53:06.638Z,11.09
2019-05-13T00:55:39.281Z,10.67
2019-05-13T00:58:13.942Z,10.36
2019-05-13T01:00:46.777Z,10.11
2019-05-13T01:03:19.877Z,10.15
2019-05-13T01:05:53.534Z,13.10
2019-05-13T01:08:27.169Z,13.34
2019-05-13T01:10:59.752Z,12.33
2019-05-13T01:13:34.224Z,11.54
2019-05-13T01:16:08.182Z,11.05
2019-05-13T01:18:43.172Z,10.63
2019-05-13T01:21:15.999Z,10.31
2019-05-13T01:23:49.090Z,10.01
2019-05-13T01:26:23.285Z,10.00
2019-05-13T01:28:55.981Z,12.95
2019-05-13T01:31:28.668Z,13.52
2019-05-13T01:34:01.343Z,12.47
2019-05-13T01:36:34.264Z,11.65
2019-05-13T01:39:08.755Z,11.05
2019-05-13T01:41:43.647Z,10.60
2019-05-13T01:44:15.467Z,10.25
2019-05-13T01:46:47.674Z,9.96
2019-05-13T01:49:20.404Z,11.46
2019-05-13T01:51:54.167Z,14.51
2019-05-13T01:54:27.076Z,14.29
2019-05-13T01:56:59.647Z,13.04
2019-05-13T01:59:33.993Z,12.12
2019-05-13T02:02:07.263Z,11.47
2019-05-13T02:04:39.534Z,11.02
2019-05-13T02:07:13.809Z,10.62
2019-05-13T02:09:46.107Z,10.27
2019-05-13T02:12:18.695Z,9.98
2019-05-13T02:14:53.411Z,9.70
2019-05-13T02:17:25.594Z,11.46
2019-05-13T02:19:59.289Z,14.52
2019-05-13T02:22:33.661Z,14.02
2019-05-13T02:25:07.327Z,12.71
2019-05-13T02:27:40.192Z,11.84
2019-05-13T02:30:16.299Z,11.22
2019-05-13T02:32:47.187Z,10.76
2019-05-13T02:35:22.945Z,10.36
2019-05-13T02:38:12.378Z,10.01
2019-05-13T02:40:32.470Z,9.72
2019-05-13T02:43:03.387Z,11.32
2019-05-13T02:45:36.740Z,14.36
2019-05-13T02:48:12.424Z,13.92
2019-05-13T02:50:44.249Z,12.69
2019-05-13T02:53:17.022Z,11.85
2019-05-13T02:55:52.446Z,11.21
2019-05-13T02:58:25.133Z,10.70
2019-05-13T03:00:58.345Z,10.28
2019-05-13T03:03:32.685Z,9.94
2019-05-13T03:06:05.220Z,9.59
2019-05-13T03:08:46.185Z,9.39
2019-05-13T03:11:12.764Z,12.09
2019-05-13T03:13:47.279Z,14.51
2019-05-13T03:16:24.925Z,13.48
2019-05-13T03:18:57.706Z,12.24
2019-05-13T03:21:32.667Z,11.40
2019-05-13T03:24:05.324Z,10.79
2019-05-13T03:26:38.140Z,10.31
2019-05-13T03:29:13.330Z,9.94
2019-05-13T03:31:47.236Z,11.54
2019-05-13T03:34:25.460Z,13.89
2019-05-13T03:36:57.350Z,12.87
2019-05-13T03:39:33.209Z,11.77
2019-05-13T03:42:12.346Z,10.99
2019-05-13T03:44:46.180Z,10.46
2019-05-13T03:47:23.125Z,10.04
2019-05-13T03:50:03.029Z,9.70
2019-05-13T03:52:34.776Z,11.01
2019-05-13T03:55:09.349Z,14.12
2019-05-13T03:57:42.568Z,13.90
2019-05-13T04:00:16.370Z,12.54
2019-05-13T04:02:51.882Z,11.64
2019-05-13T04:05:23.749Z,11.01
2019-05-13T04:07:56.732Z,10.56
2019-05-13T04:10:33.354Z,10.17
2019-05-13T04:13:06.969Z,9.87
2019-05-13T04:15:42.514Z,9.97
2019-05-13T04:18:14.195Z,13.00
2019-05-13T04:20:48.668Z,13.51
2019-05-13T04:23:25.765Z,12.48
2019-05-13T04:26:02.617Z,11.61
2019-05-13T04:28:35.098Z,11.08
2019-05-13T04:31:07.750Z,10.71
2019-05-13T04:33:47.300Z,10.43
2019-05-13T04:36:23.542Z,10.64
2019-05-13T04:38:55.656Z,13.70
2019-05-13T04:41:28.281Z,14.04
2019-05-13T04:44:02.649Z,12.95
2019-05-13T04:46:35.788Z,12.22
2019-05-13T04:49:08.482Z,11.75
2019-05-13T04:51:42.090Z,11.42
2019-05-13T04:54:15.057Z,11.15
2019-05-13T04:56:47.948Z,10.92
2019-05-13T04:59:22.675Z,12.79
2019-05-13T05:02:51.270Z,15.19
2019-05-13T05:05:34.274Z,13.98
2019-05-13T05:08:42.077Z,13.14
2019-05-13T05:11:48.167Z,12.62
2019-05-13T05:14:44.284Z,12.27
2019-05-13T05:17:39.593Z,12.02
2019-05-13T05:20:32.161Z,11.81
2019-05-13T05:23:32.030Z,11.58
2019-05-13T05:26:25.511Z,11.36
2019-05-13T05:29:17.579Z,11.22
2019-05-13T05:32:12.232Z,11.11
2019-05-13T05:35:11.785Z,10.98
2019-05-13T05:38:26.273Z,10.90
2019-05-13T05:41:01.657Z,10.84
2019-05-13T05:43:37.405Z,10.80
2019-05-13T05:46:12.140Z,10.74
2019-05-13T05:48:45.929Z,10.67
2019-05-13T05:51:22.141Z,10.62
2019-05-13T05:53:57.535Z,10.56
2019-05-13T05:56:33.080Z,10.53
2019-05-13T05:59:06.183Z,10.50
2019-05-13T06:01:41.577Z,10.49
2019-05-13T06:04:14.496Z,10.49
2019-05-13T06:06:52.046Z,10.45
2019-05-13T06:09:23.546Z,10.43
2019-05-13T06:11:56.642Z,10.45
2019-05-13T06:14:29.368Z,10.46
2019-05-13T06:17:02.924Z,10.49
2019-05-13T06:19:35.909Z,10.52
2019-05-13T06:22:08.604Z,10.56
2019-05-13T06:24:42.039Z,10.63
2019-05-13T06:27:15.172Z,10.67
2019-05-13T06:29:49.292Z,10.74
2019-05-13T06:32:26.077Z,10.80
2019-05-13T06:34:57.303Z,10.86
2019-05-13T06:37:32.029Z,10.86
2019-05-13T06:40:04.201Z,10.84
2019-05-13T06:42:36.835Z,10.83
2019-05-13T06:45:12.399Z,10.84
2019-05-13T06:47:44.687Z,10.83
2019-05-13T06:50:17.378Z,10.86
2019-05-13T06:52:51.411Z,10.88
2019-05-13T06:55:24.474Z,10.94
2019-05-13T06:57:57.371Z,10.95
2019-05-13T07:00:34.225Z,10.98
2019-05-13T07:03:04.294Z,11.05
2019-05-13T07:05:45.270Z,11.08
2019-05-13T07:08:22.194Z,11.09
2019-05-13T07:10:58.723Z,11.11
2019-05-13T07:13:32.253Z,11.06
2019-05-13T07:16:07.978Z,11.06
2019-05-13T07:18:41.567Z,11.05
2019-05-13T07:21:21.691Z,11.04
2019-05-13T07:24:05.679Z,11.06
2019-05-13T07:26:42.883Z,11.08
2019-05-13T07:29:20.462Z,11.15
2019-05-13T07:31:58.690Z,11.21
2019-05-13T07:34:35.620Z,11.26
2019-05-13T07:37:11.334Z,11.33
2019-05-13T07:39:44.875Z,11.33
2019-05-13T07:42:19.227Z,11.38
2019-05-13T07:47:53.745Z,11.49
2019-05-13T07:50:29.286Z,11.49
2019-05-13T07:53:05.057Z,11.53
2019-05-13T07:55:44.295Z,11.54
2019-05-13T07:58:28.724Z,11.57
2019-05-13T08:01:22.113Z,11.58
2019-05-13T08:03:56.495Z,11.58
2019-05-13T08:06:41.439Z,11.56
2019-05-13T08:09:38.757Z,11.57
2019-05-13T08:12:33.098Z,11.60
2019-05-13T08:15:13.002Z,11.61
2019-05-13T08:20:57.242Z,11.70
2019-05-13T08:23:33.513Z,11.71
2019-05-13T08:26:21.658Z,11.72
2019-05-13T08:31:59.629Z,11.80
2019-05-13T08:34:45.696Z,11.81
2019-05-13T08:37:32.171Z,11.84
2019-05-13T08:40:13.751Z,11.86
2019-05-13T08:42:54.641Z,11.92
2019-05-13T08:45:31.491Z,12.03
2019-05-13T08:48:04.789Z,12.07
2019-05-13T08:51:34.526Z,12.19
2019-05-13T08:56:32.468Z,12.36
2019-05-13T08:59:26.002Z,12.36
2019-05-13T09:02:03.617Z,12.37
2019-05-13T09:04:46.254Z,12.37
2019-05-13T09:07:26.914Z,12.40
2019-05-13T09:12:37.101Z,12.59
2019-05-13T09:18:15.939Z,12.76
2019-05-13T09:21:02.501Z,12.80
2019-05-13T09:23:41.345Z,12.82
2019-05-13T09:26:14.799Z,12.84
2019-05-13T09:29:01.358Z,12.98
2019-05-13T09:31:54.920Z,13.16
2019-05-13T09:34:35.734Z,13.38
2019-05-13T09:37:22.589Z,13.58
2019-05-13T09:40:19.126Z,13.72
2019-05-13T09:43:12.629Z,13.90
2019-05-13T09:46:11.815Z,14.10
2019-05-13T09:52:12.019Z,14.52
2019-05-13T09:54:56.204Z,14.76
2019-05-13T09:58:02.974Z,14.99
2019-05-13T10:00:52.321Z,15.20
2019-05-13T10:09:24.621Z,15.81
2019-05-13T10:19:04.865Z,16.16
2019-05-13T10:25:18.609Z,16.08
2019-05-13T10:31:11.941Z,15.97
2019-05-13T10:34:10.328Z,15.89
2019-05-13T10:36:51.346Z,15.74
2019-05-13T10:39:28.783Z,15.61
2019-05-13T10:42:08.698Z,15.42
2019-05-13T10:45:06.704Z,15.29
2019-05-13T10:48:03.195Z,15.37
2019-05-13T10:51:02.402Z,15.60
2019-05-13T10:54:14.458Z,15.75
2019-05-13T10:57:03.530Z,15.79
2019-05-13T10:59:44.331Z,15.78
2019-05-13T11:11:12.941Z,16.26
2019-05-13T11:14:10.135Z,16.48
2019-05-13T11:16:38.730Z,16.68
2019-05-13T11:19:14.603Z,16.79
2019-05-13T11:21:50.620Z,16.80
2019-05-13T11:24:22.860Z,16.69
2019-05-13T11:26:57.134Z,16.61
2019-05-13T11:29:32.330Z,16.58
2019-05-13T11:32:04.294Z,16.69
2019-05-13T11:34:41.977Z,16.92
2019-05-13T11:37:22.315Z,17.02
2019-05-13T11:40:02.946Z,16.90
2019-05-13T11:42:55.265Z,16.73
2019-05-13T11:45:41.541Z,16.52
2019-05-13T11:51:24.080Z,16.19
2019-05-13T11:53:55.308Z,16.09
2019-05-13T11:56:33.578Z,16.19
2019-05-13T11:59:07.905Z,16.43
2019-05-13T12:08:14.213Z,17.13
2019-05-13T12:14:43.054Z,16.99
2019-05-13T12:24:51.575Z,18.21
2019-05-13T12:31:38.580Z,18.31
2019-05-13T12:36:56.729Z,18.98
2019-05-13T12:39:32.055Z,19.40
2019-05-13T12:42:03.991Z,19.75
2019-05-13T12:44:59.814Z,20.13
2019-05-13T12:47:14.673Z,20.43
2019-05-13T12:49:47.580Z,20.80
2019-05-13T12:52:22.932Z,20.92
2019-05-13T12:54:54.104Z,20.75
2019-05-13T12:57:26.376Z,20.50
2019-05-13T13:00:02.089Z,20.20
2019-05-13T13:39:25.418Z,16.24
2019-05-13T13:44:26.223Z,15.74
2019-05-13T13:46:59.298Z,15.50
2019-05-13T13:49:34.872Z,15.25
2019-05-13T13:52:06.483Z,15.04
2019-05-13T13:54:45.738Z,14.85
2019-05-13T13:57:18.003Z,14.70
2019-05-13T14:00:16.304Z,14.56
2019-05-13T14:02:25.651Z,14.51
2019-05-13T14:05:04.881Z,14.51
2019-05-13T14:07:38.634Z,14.52
2019-05-13T14:10:11.607Z,14.53
2019-05-13T14:12:44.122Z,14.58
2019-05-13T14:15:16.580Z,14.58
2019-05-13T14:17:51.655Z,14.60
2019-05-13T14:20:26.089Z,14.69
2019-05-13T14:23:02.831Z,14.80
2019-05-13T14:28:45.146Z,15.28
2019-05-13T14:34:35.655Z,15.78
2019-05-13T14:37:17.711Z,15.84
2019-05-13T14:40:12.168Z,15.95
2019-05-13T14:46:15.858Z,16.90
2019-05-13T14:48:56.130Z,17.49
2019-05-13T14:51:29.061Z,17.68
2019-05-13T14:54:28.408Z,17.82
2019-05-13T14:57:07.295Z,18.12
2019-05-13T14:59:41.436Z,18.73
2019-05-13T15:02:14.553Z,19.47
2019-05-13T15:04:47.237Z,19.98
2019-05-13T15:07:21.653Z,20.15
2019-05-13T15:09:56.887Z,19.95
2019-05-13T15:12:32.331Z,19.65
2019-05-13T15:15:18.606Z,19.30
2019-05-13T15:36:22.585Z,16.75
2019-05-13T15:39:12.649Z,16.40
2019-05-13T15:41:47.502Z,16.06
2019-05-13T15:44:21.975Z,15.71
2019-05-13T15:46:59.424Z,15.44
2019-05-13T15:49:32.353Z,15.16
2019-05-13T15:52:06.796Z,14.91
2019-05-13T15:54:41.456Z,14.67
2019-05-13T15:57:18.049Z,14.48
2019-05-13T15:59:53.426Z,14.31
2019-05-13T16:02:27.841Z,14.19
2019-05-13T16:05:04.618Z,14.11
2019-05-13T16:07:35.876Z,14.40
2019-05-13T16:10:11.351Z,15.20
2019-05-13T16:13:02.298Z,16.15
2019-05-13T16:15:55.072Z,17.06
2019-05-13T16:25:20.729Z,16.80
2019-05-13T16:27:53.925Z,16.56
2019-05-13T16:30:26.915Z,16.34
2019-05-13T16:33:02.258Z,16.16
2019-05-13T16:35:34.420Z,15.97
2019-05-13T16:38:07.195Z,15.82
2019-05-13T16:40:42.173Z,15.64
2019-05-13T16:43:15.177Z,15.47
2019-05-13T16:45:47.446Z,15.37
2019-05-13T16:48:21.700Z,15.50
2019-05-13T16:51:08.426Z,15.99
2019-05-13T16:57:10.507Z,17.69
2019-05-13T16:59:42.885Z,17.93
2019-05-13T17:11:36.203Z,16.78
2019-05-13T17:14:13.901Z,16.48
2019-05-13T17:16:46.683Z,16.19
2019-05-13T17:19:19.253Z,15.95
2019-05-13T17:21:55.205Z,15.78
2019-05-13T17:24:28.655Z,15.64
2019-05-13T17:27:02.406Z,15.49
2019-05-13T17:29:36.355Z,15.29
2019-05-13T17:32:11.423Z,15.01
2019-05-13T17:34:45.873Z,14.76
2019-05-13T17:37:17.840Z,14.52
2019-05-13T17:39:50.719Z,14.24
2019-05-13T17:42:24.008Z,14.01
2019-05-13T17:44:56.684Z,13.80
2019-05-13T17:47:31.121Z,13.60
2019-05-13T17:50:06.405Z,13.41
2019-05-13T17:52:39.026Z,13.24
2019-05-13T17:55:12.495Z,13.06
2019-05-13T17:57:45.198Z,12.90
2019-05-13T18:00:17.991Z,12.78
2019-05-13T18:02:51.445Z,12.65
2019-05-13T18:05:24.369Z,12.52
2019-05-13T18:07:57.052Z,12.41
2019-05-13T18:10:31.822Z,12.29
2019-05-13T18:13:04.875Z,12.20
2019-05-13T18:15:37.533Z,12.07
2019-05-13T18:18:11.863Z,11.99
2019-05-13T18:20:44.235Z,11.86
2019-05-13T18:23:17.120Z,11.74
2019-05-13T18:25:51.477Z,11.64
2019-05-13T18:28:30.932Z,11.50
2019-05-13T18:30:58.149Z,11.38
2019-05-13T18:33:31.968Z,11.26
2019-05-13T18:36:06.350Z,11.12
2019-05-13T18:38:38.635Z,10.97
2019-05-13T18:41:11.998Z,10.84
2019-05-13T18:43:45.087Z,10.69
2019-05-13T18:46:17.883Z,10.53
2019-05-13T18:48:58.680Z,10.40
2019-05-13T18:51:24.884Z,10.27
2019-05-13T18:54:01.140Z,10.11
2019-05-13T18:56:34.234Z,9.97
2019-05-13T18:59:06.900Z,9.82
2019-05-13T19:01:39.843Z,9.69
2019-05-13T19:04:12.679Z,9.52
2019-05-13T19:06:46.374Z,9.38
2019-05-13T19:09:21.759Z,9.26
2019-05-13T19:11:54.406Z,9.10
2019-05-13T19:14:26.679Z,8.99
2019-05-13T19:16:59.335Z,8.86
2019-05-13T19:19:32.030Z,8.72
2019-05-13T19:22:05.106Z,8.60
2019-05-13T19:24:37.791Z,8.47
2019-05-13T19:27:12.023Z,8.36
2019-05-13T19:29:46.334Z,8.25
2019-05-13T19:32:21.718Z,8.16
2019-05-13T19:34:53.736Z,8.09
2019-05-13T19:37:26.190Z,7.99
2019-05-13T19:40:03.041Z,7.92
2019-05-13T19:42:37.427Z,7.85
2019-05-13T19:45:11.180Z,7.76
2019-05-13T19:47:43.785Z,7.70
2019-05-13T19:50:16.092Z,7.63
2019-05-13T19:52:48.734Z,7.56
2019-05-13T19:55:21.526Z,7.46
2019-05-13T19:57:54.435Z,7.40
2019-05-13T20:00:28.652Z,7.35
2019-05-13T20:03:01.394Z,7.26
2019-05-13T20:05:34.075Z,7.16
2019-05-13T20:08:07.286Z,7.11
2019-05-13T20:10:42.158Z,7.04
2019-05-13T20:13:13.955Z,7.00
2019-05-13T20:15:46.726Z,6.94
2019-05-13T20:18:18.950Z,6.90
2019-05-13T20:20:52.202Z,6.82
2019-05-13T20:23:25.789Z,6.79
2019-05-13T20:25:59.245Z,6.73
2019-05-13T20:28:31.885Z,6.68
2019-05-13T20:31:04.555Z,6.63
2019-05-13T20:33:39.959Z,6.59
2019-05-13T20:36:12.577Z,6.53
2019-05-13T20:38:45.755Z,6.52
2019-05-13T20:41:18.845Z,6.48
2019-05-13T20:43:52.156Z,6.45
2019-05-13T20:46:25.124Z,6.39
2019-05-13T20:48:57.709Z,6.35
2019-05-13T20:51:31.344Z,6.37
2019-05-13T20:54:04.190Z,6.37
2019-05-13T20:56:37.069Z,6.37
2019-05-13T20:59:12.576Z,6.37
2019-05-13T21:01:45.189Z,6.32
2019-05-13T21:04:17.865Z,6.30
2019-05-13T21:06:51.628Z,6.27
2019-05-13T21:09:24.458Z,6.30
2019-05-13T21:11:56.715Z,6.27
2019-05-13T21:14:31.785Z,6.25
2019-05-13T21:17:03.813Z,6.22
2019-05-13T21:19:39.707Z,6.18
2019-05-13T21:22:11.850Z,6.16
2019-05-13T21:24:44.522Z,6.13
2019-05-13T21:27:17.200Z,6.10
2019-05-13T21:29:51.939Z,6.09
2019-05-13T21:32:25.122Z,6.03
2019-05-13T21:34:57.711Z,5.99
2019-05-13T21:37:30.489Z,5.95
2019-05-13T21:40:03.273Z,5.92
2019-05-13T21:42:37.283Z,5.89
2019-05-13T21:45:11.251Z,5.86
2019-05-13T21:47:44.073Z,5.79
2019-05-13T21:50:29.470Z,5.78
2019-05-13T21:52:51.542Z,5.77
2019-05-13T21:55:24.147Z,5.71
2019-05-13T21:57:58.058Z,5.67
2019-05-13T22:00:32.474Z,5.64
2019-05-13T22:03:05.679Z,5.61
2019-05-13T22:05:38.359Z,5.55
2019-05-13T22:08:12.373Z,5.54
2019-05-13T22:10:45.081Z,5.51
2019-05-13T22:13:17.723Z,5.51
2019-05-13T22:15:52.343Z,5.47
2019-05-13T22:18:24.924Z,5.47
2019-05-13T22:20:57.804Z,5.43
2019-05-13T22:23:32.076Z,5.41
2019-05-13T22:26:04.489Z,5.37
2019-05-13T22:28:37.370Z,5.36
2019-05-13T22:31:11.688Z,5.33
2019-05-13T22:33:45.285Z,5.30
2019-05-13T22:36:18.477Z,5.30
2019-05-13T22:38:51.785Z,5.28
2019-05-13T22:41:24.591Z,5.27
2019-05-13T22:43:58.893Z,5.28
2019-05-13T22:46:32.208Z,5.28
2019-05-13T22:49:05.266Z,5.24
2019-05-13T22:51:38.251Z,5.28
2019-05-13T22:54:11.895Z,5.27
2019-05-13T22:56:44.839Z,5.26
2019-05-13T22:59:17.520Z,5.26
2019-05-13T23:01:52.345Z,5.26
2019-05-13T23:04:24.721Z,5.28
2019-05-13T23:06:57.897Z,5.24
2019-05-13T23:09:32.194Z,5.28
2019-05-13T23:12:05.032Z,5.28
2019-05-13T23:14:37.885Z,5.34
2019-05-13T23:17:12.550Z,5.28
2019-05-13T23:19:46.516Z,5.26
2019-05-13T23:22:19.309Z,5.28
2019-05-13T23:24:52.286Z,5.28
2019-05-13T23:27:26.193Z,5.26
2019-05-13T23:30:01.244Z,5.26
2019-05-13T23:32:35.598Z,5.26
2019-05-13T23:35:11.201Z,5.26
2019-05-13T23:37:43.678Z,5.27
2019-05-13T23:40:16.459Z,5.27
2019-05-13T23:42:51.619Z,5.33
2019-05-13T23:45:23.451Z,5.34
2019-05-13T23:47:56.125Z,5.27
2019-05-13T23:50:31.953Z,5.36
2019-05-13T23:53:04.155Z,5.40
2019-05-13T23:55:36.833Z,5.30
2019-05-13T23:58:09.513Z,5.24
